sensor_id;sensor_type;location;lat;lon;timestamp;pressure;altitude;pressure_sealevel;temperature;humidity
3294;BME280;1659;51.470;6.770;2023-05-03T00:01:37;102667.00;;;5.75;68.13
3294;BME280;1659;51.470;6.770;2023-05-03T00:04:05;102661.69;;;5.72;68.03
3294;BME280;1659;51.470;6.770;2023-05-03T00:06:32;102665.94;;;5.70;68.13
3294;BME280;1659;51.470;6.770;2023-05-03T00:08:59;102672.84;;;5.66;68.41
3294;BME280;1659;51.470;6.770;2023-05-03T00:11:26;102687.63;;;5.64;68.49
3294;BME280;1659;51.470;6.770;2023-05-03T00:13:53;102675.34;;;5.61;68.49
3294;BME280;1659;51.470;6.770;2023-05-03T00:16:19;102676.06;;;5.57;68.57
3294;BME280;1659;51.470;6.770;2023-05-03T00:18:47;102675.00;;;5.52;68.56
3294;BME280;1659;51.470;6.770;2023-05-03T00:21:14;102675.75;;;5.48;68.73
3294;BME280;1659;51.470;6.770;2023-05-03T00:23:41;102677.44;;;5.46;68.96
3294;BME280;1659;51.470;6.770;2023-05-03T00:26:07;102677.34;;;5.43;69.08
3294;BME280;1659;51.470;6.770;2023-05-03T00:28:34;102683.44;;;5.42;68.86
3294;BME280;1659;51.470;6.770;2023-05-03T00:31:05;102686.88;;;5.41;69.05
3294;BME280;1659;51.470;6.770;2023-05-03T00:33:32;102679.81;;;5.38;69.20
3294;BME280;1659;51.470;6.770;2023-05-03T00:36:06;102686.78;;;5.38;69.50
3294;BME280;1659;51.470;6.770;2023-05-03T00:38:32;102671.78;;;5.34;69.43
3294;BME280;1659;51.470;6.770;2023-05-03T00:40:59;102684.78;;;5.30;69.68
3294;BME280;1659;51.470;6.770;2023-05-03T00:43:26;102682.06;;;5.27;69.44
3294;BME280;1659;51.470;6.770;2023-05-03T00:45:53;102680.28;;;5.26;69.38
3294;BME280;1659;51.470;6.770;2023-05-03T00:48:19;102679.31;;;5.23;69.65
3294;BME280;1659;51.470;6.770;2023-05-03T00:50:46;102680.06;;;5.20;69.71
3294;BME280;1659;51.470;6.770;2023-05-03T00:53:15;102673.06;;;5.19;69.80
3294;BME280;1659;51.470;6.770;2023-05-03T00:55:42;102669.53;;;5.19;69.85
3294;BME280;1659;51.470;6.770;2023-05-03T00:58:10;102673.06;;;5.19;70.16
3294;BME280;1659;51.470;6.770;2023-05-03T01:00:37;102673.06;;;5.19;70.16
3294;BME280;1659;51.470;6.770;2023-05-03T01:03:04;102678.25;;;5.18;69.95
3294;BME280;1659;51.470;6.770;2023-05-03T01:05:35;102672.06;;;5.16;69.82
3294;BME280;1659;51.470;6.770;2023-05-03T01:08:08;102666.84;;;5.16;70.13
3294;BME280;1659;51.470;6.770;2023-05-03T01:10:43;102674.75;;;5.17;70.22
3294;BME280;1659;51.470;6.770;2023-05-03T01:13:17;102672.13;;;5.17;70.11
3294;BME280;1659;51.470;6.770;2023-05-03T01:15:52;102677.38;;;5.17;70.44
3294;BME280;1659;51.470;6.770;2023-05-03T01:18:25;102682.63;;;5.17;70.62
3294;BME280;1659;51.470;6.770;2023-05-03T01:20:54;102673.78;;;5.15;70.52
3294;BME280;1659;51.470;6.770;2023-05-03T01:23:28;102678.97;;;5.14;70.65
3294;BME280;1659;51.470;6.770;2023-05-03T01:26:13;102673.66;;;5.10;70.68
3294;BME280;1659;51.470;6.770;2023-05-03T01:28:40;102677.09;;;5.09;70.67
3294;BME280;1659;51.470;6.770;2023-05-03T01:31:07;102680.56;;;5.08;70.92
3294;BME280;1659;51.470;6.770;2023-05-03T01:33:42;102679.66;;;5.08;70.99
3294;BME280;1659;51.470;6.770;2023-05-03T01:36:12;102669.97;;;5.05;70.96
3294;BME280;1659;51.470;6.770;2023-05-03T01:38:41;102681.28;;;5.04;71.14
3294;BME280;1659;51.470;6.770;2023-05-03T01:41:11;102682.97;;;5.02;71.09
3294;BME280;1659;51.470;6.770;2023-05-03T01:43:39;102681.16;;;5.01;71.13
3294;BME280;1659;51.470;6.770;2023-05-03T01:46:06;102684.63;;;5.00;71.26
3294;BME280;1659;51.470;6.770;2023-05-03T01:48:32;102678.53;;;5.00;71.33
3294;BME280;1659;51.470;6.770;2023-05-03T01:50:59;102686.38;;;5.00;71.13
3294;BME280;1659;51.470;6.770;2023-05-03T01:53:26;102688.94;;;4.98;71.17
3294;BME280;1659;51.470;6.770;2023-05-03T01:55:52;102688.88;;;4.97;71.41
3294;BME280;1659;51.470;6.770;2023-05-03T01:58:20;102692.38;;;4.97;71.48
3294;BME280;1659;51.470;6.770;2023-05-03T02:00:47;102693.25;;;4.98;71.54
3294;BME280;1659;51.470;6.770;2023-05-03T02:03:14;102702.03;;;4.98;71.47
3294;BME280;1659;51.470;6.770;2023-05-03T02:05:41;102707.28;;;4.98;71.64
3294;BME280;1659;51.470;6.770;2023-05-03T02:08:07;102700.25;;;4.97;71.57
3294;BME280;1659;51.470;6.770;2023-05-03T02:10:34;102704.59;;;4.97;71.45
3294;BME280;1659;51.470;6.770;2023-05-03T02:13:00;102710.59;;;4.94;71.57
3294;BME280;1659;51.470;6.770;2023-05-03T02:15:29;102705.28;;;4.91;72.00
3294;BME280;1659;51.470;6.770;2023-05-03T02:17:56;102705.22;;;4.89;71.76
3294;BME280;1659;51.470;6.770;2023-05-03T02:20:22;102710.41;;;4.88;71.89
3294;BME280;1659;51.470;6.770;2023-05-03T02:22:49;102708.59;;;4.87;72.02
3294;BME280;1659;51.470;6.770;2023-05-03T02:25:15;102710.34;;;4.86;72.15
3294;BME280;1659;51.470;6.770;2023-05-03T02:27:42;102706.78;;;4.84;72.16
3294;BME280;1659;51.470;6.770;2023-05-03T02:30:09;102708.50;;;4.84;72.20
3294;BME280;1659;51.470;6.770;2023-05-03T02:32:37;102710.16;;;4.82;72.43
3294;BME280;1659;51.470;6.770;2023-05-03T02:35:04;102707.50;;;4.80;72.51
3294;BME280;1659;51.470;6.770;2023-05-03T02:37:31;102716.19;;;4.79;72.29
3294;BME280;1659;51.470;6.770;2023-05-03T02:39:58;102711.72;;;4.77;72.46
3294;BME280;1659;51.470;6.770;2023-05-03T02:42:24;102716.88;;;4.73;72.63
3294;BME280;1659;51.470;6.770;2023-05-03T02:44:51;102714.97;;;4.69;72.59
3294;BME280;1659;51.470;6.770;2023-05-03T02:47:17;102718.44;;;4.68;72.62
3294;BME280;1659;51.470;6.770;2023-05-03T02:49:45;102726.16;;;4.65;72.75
3294;BME280;1659;51.470;6.770;2023-05-03T02:52:12;102711.22;;;4.63;72.80
3294;BME280;1659;51.470;6.770;2023-05-03T02:54:38;102713.78;;;4.61;73.08
3294;BME280;1659;51.470;6.770;2023-05-03T02:57:05;102709.28;;;4.57;72.90
3294;BME280;1659;51.470;6.770;2023-05-03T02:59:31;102711.00;;;4.57;73.09
3294;BME280;1659;51.470;6.770;2023-05-03T03:01:58;102705.78;;;4.57;73.29
3294;BME280;1659;51.470;6.770;2023-05-03T03:04:24;102705.72;;;4.55;73.27
3294;BME280;1659;51.470;6.770;2023-05-03T03:06:53;102704.88;;;4.56;73.25
3294;BME280;1659;51.470;6.770;2023-05-03T03:09:20;102692.63;;;4.55;73.25
3294;BME280;1659;51.470;6.770;2023-05-03T03:11:47;102694.28;;;4.53;73.46
3294;BME280;1659;51.470;6.770;2023-05-03T03:14:14;102685.53;;;4.52;73.47
3294;BME280;1659;51.470;6.770;2023-05-03T03:16:40;102686.44;;;4.53;73.63
3294;BME280;1659;51.470;6.770;2023-05-03T03:19:07;102680.28;;;4.52;73.47
3294;BME280;1659;51.470;6.770;2023-05-03T03:21:33;102683.88;;;4.54;73.60
3294;BME280;1659;51.470;6.770;2023-05-03T03:24:02;102678.66;;;4.54;73.87
3294;BME280;1659;51.470;6.770;2023-05-03T03:26:29;102682.09;;;4.53;73.75
3294;BME280;1659;51.470;6.770;2023-05-03T03:28:56;102674.09;;;4.50;73.83
3294;BME280;1659;51.470;6.770;2023-05-03T03:31:22;102671.50;;;4.50;73.85
3294;BME280;1659;51.470;6.770;2023-05-03T03:33:49;102676.66;;;4.49;73.96
3294;BME280;1659;51.470;6.770;2023-05-03T03:36:16;102669.53;;;4.45;74.06
3294;BME280;1659;51.470;6.770;2023-05-03T03:38:43;102660.69;;;4.41;73.87
3294;BME280;1659;51.470;6.770;2023-05-03T03:41:11;102674.50;;;4.37;74.12
3294;BME280;1659;51.470;6.770;2023-05-03T03:43:37;102669.16;;;4.34;74.39
3294;BME280;1659;51.470;6.770;2023-05-03T03:46:04;102671.69;;;4.32;74.18
3294;BME280;1659;51.470;6.770;2023-05-03T03:48:31;102669.09;;;4.32;74.55
3294;BME280;1659;51.470;6.770;2023-05-03T03:50:57;102663.91;;;4.34;74.42
3294;BME280;1659;51.470;6.770;2023-05-03T03:53:24;102662.25;;;4.36;74.47
3294;BME280;1659;51.470;6.770;2023-05-03T03:55:50;102657.94;;;4.38;74.32
3294;BME280;1659;51.470;6.770;2023-05-03T03:58:18;102647.59;;;4.41;74.38
3294;BME280;1659;51.470;6.770;2023-05-03T04:00:45;102654.66;;;4.44;74.36
3294;BME280;1659;51.470;6.770;2023-05-03T04:03:11;102640.75;;;4.45;74.78
3294;BME280;1659;51.470;6.770;2023-05-03T04:05:38;102632.91;;;4.45;74.50
3294;BME280;1659;51.470;6.770;2023-05-03T04:08:05;102641.63;;;4.45;74.64
3294;BME280;1659;51.470;6.770;2023-05-03T04:10:31;102640.00;;;4.47;74.87
3294;BME280;1659;51.470;6.770;2023-05-03T04:12:58;102632.16;;;4.49;74.72
3294;BME280;1659;51.470;6.770;2023-05-03T04:15:26;102648.03;;;4.53;74.96
3294;BME280;1659;51.470;6.770;2023-05-03T04:17:52;102656.91;;;4.57;75.13
3294;BME280;1659;51.470;6.770;2023-05-03T04:20:19;102658.75;;;4.60;75.24
3294;BME280;1659;51.470;6.770;2023-05-03T04:22:46;102664.94;;;4.62;74.89
3294;BME280;1659;51.470;6.770;2023-05-03T04:25:13;102667.66;;;4.65;75.30
3294;BME280;1659;51.470;6.770;2023-05-03T04:27:41;102677.34;;;4.67;75.16
3294;BME280;1659;51.470;6.770;2023-05-03T04:30:08;102679.09;;;4.67;75.27
3294;BME280;1659;51.470;6.770;2023-05-03T04:32:37;102681.78;;;4.68;75.20
3294;BME280;1659;51.470;6.770;2023-05-03T04:35:05;102681.84;;;4.71;75.48
3294;BME280;1659;51.470;6.770;2023-05-03T04:37:33;102686.28;;;4.72;75.33
3294;BME280;1659;51.470;6.770;2023-05-03T04:40:00;102688.09;;;4.75;74.85
3294;BME280;1659;51.470;6.770;2023-05-03T04:42:28;102685.59;;;4.78;75.22
3294;BME280;1659;51.470;6.770;2023-05-03T04:44:55;102677.84;;;4.81;75.33
3294;BME280;1659;51.470;6.770;2023-05-03T04:47:21;102689.34;;;4.85;75.17
3294;BME280;1659;51.470;6.770;2023-05-03T04:49:50;102689.44;;;4.88;75.33
3294;BME280;1659;51.470;6.770;2023-05-03T04:52:17;102683.47;;;4.92;75.45
3294;BME280;1659;51.470;6.770;2023-05-03T04:54:44;102681.84;;;4.96;75.34
3294;BME280;1659;51.470;6.770;2023-05-03T04:57:10;102693.44;;;5.02;75.50
3294;BME280;1659;51.470;6.770;2023-05-03T04:59:37;102681.38;;;5.07;75.66
3294;BME280;1659;51.470;6.770;2023-05-03T05:02:04;102686.81;;;5.14;75.29
3294;BME280;1659;51.470;6.770;2023-05-03T05:04:30;102678.31;;;5.19;75.58
3294;BME280;1659;51.470;6.770;2023-05-03T05:06:58;102688.09;;;5.25;75.31
3294;BME280;1659;51.470;6.770;2023-05-03T05:09:26;102690.91;;;5.31;75.26
3294;BME280;1659;51.470;6.770;2023-05-03T05:11:55;102694.59;;;5.36;75.37
3294;BME280;1659;51.470;6.770;2023-05-03T05:14:22;102704.44;;;5.43;75.43
3294;BME280;1659;51.470;6.770;2023-05-03T05:16:49;102707.41;;;5.53;75.26
3294;BME280;1659;51.470;6.770;2023-05-03T05:19:16;102715.56;;;5.62;75.49
3294;BME280;1659;51.470;6.770;2023-05-03T05:21:42;102718.47;;;5.71;75.38
3294;BME280;1659;51.470;6.770;2023-05-03T05:24:10;102721.41;;;5.80;75.05
3294;BME280;1659;51.470;6.770;2023-05-03T05:26:37;102719.03;;;5.88;75.07
3294;BME280;1659;51.470;6.770;2023-05-03T05:29:04;102725.56;;;6.01;75.26
3294;BME280;1659;51.470;6.770;2023-05-03T05:31:30;102727.88;;;6.17;75.27
3294;BME280;1659;51.470;6.770;2023-05-03T05:33:57;102730.97;;;6.33;75.37
3294;BME280;1659;51.470;6.770;2023-05-03T05:36:24;102722.53;;;6.45;75.47
3294;BME280;1659;51.470;6.770;2023-05-03T05:38:50;102720.41;;;6.61;75.95
3294;BME280;1659;51.470;6.770;2023-05-03T05:41:18;102719.25;;;6.82;75.56
3294;BME280;1659;51.470;6.770;2023-05-03T05:43:45;102726.97;;;7.08;75.67
3294;BME280;1659;51.470;6.770;2023-05-03T05:46:12;102724.19;;;7.35;74.99
3294;BME280;1659;51.470;6.770;2023-05-03T05:48:40;102721.25;;;7.94;74.87
3294;BME280;1659;51.470;6.770;2023-05-03T05:51:07;102726.19;;;9.00;73.08
3294;BME280;1659;51.470;6.770;2023-05-03T05:53:34;102721.59;;;9.92;71.00
3294;BME280;1659;51.470;6.770;2023-05-03T05:56:01;102720.81;;;10.59;69.52
3294;BME280;1659;51.470;6.770;2023-05-03T05:58:29;102725.03;;;11.21;68.11
3294;BME280;1659;51.470;6.770;2023-05-03T06:00:57;102713.09;;;11.66;66.94
3294;BME280;1659;51.470;6.770;2023-05-03T06:03:25;102720.47;;;12.09;66.18
3294;BME280;1659;51.470;6.770;2023-05-03T06:05:51;102715.38;;;12.47;65.33
3294;BME280;1659;51.470;6.770;2023-05-03T06:08:18;102728.81;;;12.91;64.25
3294;BME280;1659;51.470;6.770;2023-05-03T06:10:44;102724.47;;;13.20;63.80
3294;BME280;1659;51.470;6.770;2023-05-03T06:13:11;102729.84;;;13.59;62.63
3294;BME280;1659;51.470;6.770;2023-05-03T06:15:39;102735.16;;;13.74;61.93
3294;BME280;1659;51.470;6.770;2023-05-03T06:18:06;102718.31;;;13.88;61.10
3294;BME280;1659;51.470;6.770;2023-05-03T06:20:32;102728.00;;;14.16;60.90
3294;BME280;1659;51.470;6.770;2023-05-03T06:22:59;102732.41;;;14.28;59.59
3294;BME280;1659;51.470;6.770;2023-05-03T06:25:25;102726.13;;;14.59;59.20
3294;BME280;1659;51.470;6.770;2023-05-03T06:27:52;102720.63;;;14.96;58.50
3294;BME280;1659;51.470;6.770;2023-05-03T06:30:19;102723.09;;;15.26;57.91
3294;BME280;1659;51.470;6.770;2023-05-03T06:32:49;102730.13;;;15.37;57.30
3294;BME280;1659;51.470;6.770;2023-05-03T06:35:15;102729.06;;;15.62;56.79
3294;BME280;1659;51.470;6.770;2023-05-03T06:37:43;102730.66;;;15.85;56.01
3294;BME280;1659;51.470;6.770;2023-05-03T06:40:11;102726.09;;;15.95;55.85
3294;BME280;1659;51.470;6.770;2023-05-03T06:42:37;102721.59;;;16.01;55.10
3294;BME280;1659;51.470;6.770;2023-05-03T06:45:05;102724.03;;;16.23;55.01
3294;BME280;1659;51.470;6.770;2023-05-03T06:47:32;102717.69;;;16.35;54.28
3294;BME280;1659;51.470;6.770;2023-05-03T06:50:00;102726.56;;;16.35;53.74
3294;BME280;1659;51.470;6.770;2023-05-03T06:52:27;102731.03;;;16.32;53.70
3294;BME280;1659;51.470;6.770;2023-05-03T06:54:54;102731.84;;;16.38;52.80
3294;BME280;1659;51.470;6.770;2023-05-03T06:57:20;102726.41;;;16.48;52.21
3294;BME280;1659;51.470;6.770;2023-05-03T06:59:47;102727.88;;;16.72;51.80
3294;BME280;1659;51.470;6.770;2023-05-03T07:02:13;102725.81;;;16.97;51.43
3294;BME280;1659;51.470;6.770;2023-05-03T07:04:40;102727.31;;;17.16;50.90
3294;BME280;1659;51.470;6.770;2023-05-03T07:07:08;102718.28;;;17.25;50.58
3294;BME280;1659;51.470;6.770;2023-05-03T07:09:34;102724.84;;;17.59;49.83
3294;BME280;1659;51.470;6.770;2023-05-03T07:12:01;102719.25;;;17.74;49.21
3294;BME280;1659;51.470;6.770;2023-05-03T07:14:28;102717.22;;;17.90;49.58
3294;BME280;1659;51.470;6.770;2023-05-03T07:16:55;102715.94;;;18.11;49.00
3294;BME280;1659;51.470;6.770;2023-05-03T07:19:22;102710.94;;;18.38;48.87
3294;BME280;1659;51.470;6.770;2023-05-03T07:21:49;102708.34;;;18.77;48.50
3294;BME280;1659;51.470;6.770;2023-05-03T07:24:17;102701.22;;;18.74;47.89
3294;BME280;1659;51.470;6.770;2023-05-03T07:26:44;102706.53;;;18.77;47.64
3294;BME280;1659;51.470;6.770;2023-05-03T07:29:11;102694.28;;;18.65;47.01
3294;BME280;1659;51.470;6.770;2023-05-03T07:31:38;102698.44;;;18.80;47.29
3294;BME280;1659;51.470;6.770;2023-05-03T07:34:04;102696.13;;;19.04;46.90
3294;BME280;1659;51.470;6.770;2023-05-03T07:36:31;102689.06;;;19.37;46.46
3294;BME280;1659;51.470;6.770;2023-05-03T07:38:58;102682.84;;;19.71;46.49
3294;BME280;1659;51.470;6.770;2023-05-03T07:41:26;102676.09;;;19.91;45.75
3294;BME280;1659;51.470;6.770;2023-05-03T07:43:52;102677.66;;;19.98;45.19
3294;BME280;1659;51.470;6.770;2023-05-03T07:46:29;102669.88;;;19.89;45.42
3294;BME280;1659;51.470;6.770;2023-05-03T07:48:59;102677.47;;;20.04;44.97
3294;BME280;1659;51.470;6.770;2023-05-03T07:51:26;102683.53;;;20.12;44.69
3294;BME280;1659;51.470;6.770;2023-05-03T07:53:53;102680.47;;;20.25;44.24
3294;BME280;1659;51.470;6.770;2023-05-03T07:56:20;102685.84;;;20.25;43.69
3294;BME280;1659;51.470;6.770;2023-05-03T07:58:48;102687.31;;;20.36;43.34
3294;BME280;1659;51.470;6.770;2023-05-03T08:01:14;102678.31;;;20.69;42.72
3294;BME280;1659;51.470;6.770;2023-05-03T08:03:42;102685.63;;;20.93;42.53
3294;BME280;1659;51.470;6.770;2023-05-03T08:06:08;102680.50;;;20.84;42.30
3294;BME280;1659;51.470;6.770;2023-05-03T08:08:35;102675.19;;;21.11;42.40
3294;BME280;1659;51.470;6.770;2023-05-03T08:11:02;102671.47;;;21.15;41.60
3294;BME280;1659;51.470;6.770;2023-05-03T08:13:29;102674.00;;;20.91;41.18
3294;BME280;1659;51.470;6.770;2023-05-03T08:15:57;102675.00;;;20.89;41.64
3294;BME280;1659;51.470;6.770;2023-05-03T08:18:24;102667.75;;;21.19;41.07
3294;BME280;1659;51.470;6.770;2023-05-03T08:20:51;102666.50;;;21.03;41.18
3294;BME280;1659;51.470;6.770;2023-05-03T08:23:17;102678.13;;;21.03;40.76
3294;BME280;1659;51.470;6.770;2023-05-03T08:25:45;102674.41;;;21.07;40.19
3294;BME280;1659;51.470;6.770;2023-05-03T08:28:12;102670.56;;;21.16;40.10
3294;BME280;1659;51.470;6.770;2023-05-03T08:30:39;102660.72;;;21.68;40.23
3294;BME280;1659;51.470;6.770;2023-05-03T08:33:07;102656.44;;;22.12;39.91
3294;BME280;1659;51.470;6.770;2023-05-03T08:35:35;102654.53;;;22.40;39.70
3294;BME280;1659;51.470;6.770;2023-05-03T08:38:01;102652.09;;;22.33;38.98
3294;BME280;1659;51.470;6.770;2023-05-03T08:40:29;102658.03;;;21.94;38.60
3294;BME280;1659;51.470;6.770;2023-05-03T08:43:06;102657.75;;;21.76;39.11
3294;BME280;1659;51.470;6.770;2023-05-03T08:45:33;102667.75;;;21.73;39.04
3294;BME280;1659;51.470;6.770;2023-05-03T08:48:00;102658.84;;;21.71;39.23
3294;BME280;1659;51.470;6.770;2023-05-03T08:50:30;102648.47;;;22.09;39.02
3294;BME280;1659;51.470;6.770;2023-05-03T08:52:58;102649.41;;;22.33;38.87
3294;BME280;1659;51.470;6.770;2023-05-03T08:55:25;102646.00;;;22.51;38.75
3294;BME280;1659;51.470;6.770;2023-05-03T08:57:52;102640.69;;;22.50;38.30
3294;BME280;1659;51.470;6.770;2023-05-03T09:00:19;102643.47;;;22.23;37.77
3294;BME280;1659;51.470;6.770;2023-05-03T09:02:52;102644.81;;;22.11;38.44
3294;BME280;1659;51.470;6.770;2023-05-03T09:05:34;102644.50;;;22.19;37.99
3294;BME280;1659;51.470;6.770;2023-05-03T09:08:04;102634.97;;;22.35;38.20
3294;BME280;1659;51.470;6.770;2023-05-03T09:10:32;102638.56;;;22.34;37.83
3294;BME280;1659;51.470;6.770;2023-05-03T09:12:59;102641.53;;;22.28;37.55
3294;BME280;1659;51.470;6.770;2023-05-03T09:15:26;102636.38;;;22.46;38.12
3294;BME280;1659;51.470;6.770;2023-05-03T09:18:15;102644.81;;;22.58;36.37
3294;BME280;1659;51.470;6.770;2023-05-03T09:20:45;102636.94;;;22.30;37.07
3294;BME280;1659;51.470;6.770;2023-05-03T09:23:16;102631.81;;;22.22;37.15
3294;BME280;1659;51.470;6.770;2023-05-03T09:25:45;102632.22;;;22.37;37.46
3294;BME280;1659;51.470;6.770;2023-05-03T09:28:12;102627.16;;;22.51;37.12
3294;BME280;1659;51.470;6.770;2023-05-03T09:30:39;102626.34;;;22.71;37.14
3294;BME280;1659;51.470;6.770;2023-05-03T09:33:06;102634.66;;;22.87;36.77
3294;BME280;1659;51.470;6.770;2023-05-03T09:35:33;102625.84;;;22.84;36.22
3294;BME280;1659;51.470;6.770;2023-05-03T09:38:01;102634.41;;;22.71;36.87
3294;BME280;1659;51.470;6.770;2023-05-03T09:40:28;102631.91;;;22.89;36.58
3294;BME280;1659;51.470;6.770;2023-05-03T09:43:05;102632.19;;;22.83;36.59
3294;BME280;1659;51.470;6.770;2023-05-03T09:45:32;102622.41;;;22.58;36.14
3294;BME280;1659;51.470;6.770;2023-05-03T09:48:01;102619.28;;;22.21;36.79
3294;BME280;1659;51.470;6.770;2023-05-03T09:50:28;102610.78;;;22.09;37.43
3294;BME280;1659;51.470;6.770;2023-05-03T09:53:00;102612.25;;;21.94;36.05
3294;BME280;1659;51.470;6.770;2023-05-03T09:55:30;102603.31;;;21.68;36.10
3294;BME280;1659;51.470;6.770;2023-05-03T09:57:58;102619.28;;;21.47;36.22
3294;BME280;1659;51.470;6.770;2023-05-03T10:00:25;102618.50;;;21.44;36.40
3294;BME280;1659;51.470;6.770;2023-05-03T10:02:56;102608.53;;;21.21;36.42
3294;BME280;1659;51.470;6.770;2023-05-03T10:05:25;102611.38;;;21.43;36.78
3294;BME280;1659;51.470;6.770;2023-05-03T10:07:57;102598.94;;;21.65;36.13
3294;BME280;1659;51.470;6.770;2023-05-03T10:10:31;102601.25;;;21.51;36.27
3294;BME280;1659;51.470;6.770;2023-05-03T10:13:01;102602.06;;;21.26;36.23
3294;BME280;1659;51.470;6.770;2023-05-03T10:15:29;102588.75;;;21.23;36.78
3294;BME280;1659;51.470;6.770;2023-05-03T10:17:58;102596.78;;;21.75;36.80
3294;BME280;1659;51.470;6.770;2023-05-03T10:20:37;102599.78;;;21.41;35.38
3294;BME280;1659;51.470;6.770;2023-05-03T10:23:12;102593.69;;;21.09;36.03
3294;BME280;1659;51.470;6.770;2023-05-03T10:26:12;102595.47;;;21.10;36.57
3294;BME280;1659;51.470;6.770;2023-05-03T10:28:40;102597.38;;;21.60;36.61
3294;BME280;1659;51.470;6.770;2023-05-03T10:31:43;102601.53;;;21.68;35.36
3294;BME280;1659;51.470;6.770;2023-05-03T10:34:29;102595.75;;;21.54;35.37
3294;BME280;1659;51.470;6.770;2023-05-03T10:37:00;102604.38;;;21.64;35.02
3294;BME280;1659;51.470;6.770;2023-05-03T10:39:27;102602.94;;;21.54;35.54
3294;BME280;1659;51.470;6.770;2023-05-03T10:41:58;102601.59;;;21.67;35.61
3294;BME280;1659;51.470;6.770;2023-05-03T10:44:26;102588.09;;;21.92;35.34
3294;BME280;1659;51.470;6.770;2023-05-03T10:46:53;102593.03;;;22.28;35.32
3294;BME280;1659;51.470;6.770;2023-05-03T10:49:21;102586.59;;;22.76;34.79
3294;BME280;1659;51.470;6.770;2023-05-03T10:51:48;102589.16;;;23.02;34.36
3294;BME280;1659;51.470;6.770;2023-05-03T10:54:15;102580.91;;;23.27;34.69
3294;BME280;1659;51.470;6.770;2023-05-03T10:56:48;102574.31;;;23.54;34.36
3294;BME280;1659;51.470;6.770;2023-05-03T10:59:16;102579.34;;;23.83;34.29
3294;BME280;1659;51.470;6.770;2023-05-03T11:01:44;102579.38;;;24.02;34.43
3294;BME280;1659;51.470;6.770;2023-05-03T11:04:17;102570.31;;;23.63;34.13
3294;BME280;1659;51.470;6.770;2023-05-03T11:06:46;102570.44;;;23.40;34.53
3294;BME280;1659;51.470;6.770;2023-05-03T11:09:15;102560.06;;;23.30;33.22
3294;BME280;1659;51.470;6.770;2023-05-03T11:11:42;102564.06;;;23.22;34.50
3294;BME280;1659;51.470;6.770;2023-05-03T11:14:10;102548.34;;;23.31;33.99
3294;BME280;1659;51.470;6.770;2023-05-03T11:16:39;102545.38;;;23.37;34.04
3294;BME280;1659;51.470;6.770;2023-05-03T11:19:12;102552.66;;;23.35;34.03
3294;BME280;1659;51.470;6.770;2023-05-03T11:21:41;102544.09;;;23.46;33.71
3294;BME280;1659;51.470;6.770;2023-05-03T11:24:08;102553.50;;;22.95;33.20
3294;BME280;1659;51.470;6.770;2023-05-03T11:26:35;102551.88;;;22.47;33.69
3294;BME280;1659;51.470;6.770;2023-05-03T11:29:02;102534.34;;;22.36;34.12
3294;BME280;1659;51.470;6.770;2023-05-03T11:31:29;102540.97;;;22.28;33.89
3294;BME280;1659;51.470;6.770;2023-05-03T11:33:58;102540.31;;;22.44;33.67
3294;BME280;1659;51.470;6.770;2023-05-03T11:36:24;102542.19;;;22.65;33.16
3294;BME280;1659;51.470;6.770;2023-05-03T11:38:52;102541.34;;;22.85;33.10
3294;BME280;1659;51.470;6.770;2023-05-03T11:41:19;102534.22;;;23.04;32.96
3294;BME280;1659;51.470;6.770;2023-05-03T11:43:46;102533.22;;;23.27;32.98
3294;BME280;1659;51.470;6.770;2023-05-03T11:46:16;102530.16;;;23.36;32.57
3294;BME280;1659;51.470;6.770;2023-05-03T11:48:43;102532.84;;;23.16;32.20
3294;BME280;1659;51.470;6.770;2023-05-03T11:51:11;102541.91;;;22.93;32.15
3294;BME280;1659;51.470;6.770;2023-05-03T11:53:39;102527.69;;;23.10;32.51
3294;BME280;1659;51.470;6.770;2023-05-03T11:56:08;102526.97;;;23.47;32.14
3294;BME280;1659;51.470;6.770;2023-05-03T11:58:48;102532.47;;;23.65;31.23
3294;BME280;1659;51.470;6.770;2023-05-03T12:01:17;102537.44;;;22.92;31.28
3294;BME280;1659;51.470;6.770;2023-05-03T12:03:44;102531.59;;;22.60;31.82
3294;BME280;1659;51.470;6.770;2023-05-03T12:06:15;102525.16;;;23.07;31.80
3294;BME280;1659;51.470;6.770;2023-05-03T12:08:42;102525.56;;;23.38;31.37
3294;BME280;1659;51.470;6.770;2023-05-03T12:11:08;102529.72;;;23.46;30.72
3294;BME280;1659;51.470;6.770;2023-05-03T12:13:37;102528.03;;;23.43;30.62
3294;BME280;1659;51.470;6.770;2023-05-03T12:16:05;102521.81;;;23.41;30.83
3294;BME280;1659;51.470;6.770;2023-05-03T12:18:46;102522.25;;;23.71;30.59
3294;BME280;1659;51.470;6.770;2023-05-03T12:21:15;102521.53;;;24.25;30.54
3294;BME280;1659;51.470;6.770;2023-05-03T12:23:42;102502.75;;;24.60;30.15
3294;BME280;1659;51.470;6.770;2023-05-03T12:26:08;102506.66;;;25.06;30.18
3294;BME280;1659;51.470;6.770;2023-05-03T12:28:35;102495.91;;;25.40;30.03
3294;BME280;1659;51.470;6.770;2023-05-03T12:31:02;102502.94;;;25.60;29.98
3294;BME280;1659;51.470;6.770;2023-05-03T12:33:29;102497.69;;;25.57;29.89
3294;BME280;1659;51.470;6.770;2023-05-03T12:35:56;102487.69;;;25.24;29.71
3294;BME280;1659;51.470;6.770;2023-05-03T12:38:25;102484.09;;;25.25;29.96
3294;BME280;1659;51.470;6.770;2023-05-03T12:40:52;102493.56;;;25.50;29.99
3294;BME280;1659;51.470;6.770;2023-05-03T12:43:19;102481.47;;;25.73;29.51
3294;BME280;1659;51.470;6.770;2023-05-03T12:45:45;102473.19;;;25.92;29.26
3294;BME280;1659;51.470;6.770;2023-05-03T12:48:12;102467.75;;;25.92;29.61
3294;BME280;1659;51.470;6.770;2023-05-03T12:50:38;102461.50;;;26.07;29.56
3294;BME280;1659;51.470;6.770;2023-05-03T12:53:05;102465.78;;;26.11;29.67
3294;BME280;1659;51.470;6.770;2023-05-03T12:55:33;102460.78;;;26.35;29.55
3294;BME280;1659;51.470;6.770;2023-05-03T12:58:00;102462.06;;;26.44;29.48
3294;BME280;1659;51.470;6.770;2023-05-03T13:00:26;102462.09;;;26.28;29.18
3294;BME280;1659;51.470;6.770;2023-05-03T13:02:53;102462.53;;;26.05;28.93
3294;BME280;1659;51.470;6.770;2023-05-03T13:05:20;102457.22;;;26.03;29.17
3294;BME280;1659;51.470;6.770;2023-05-03T13:07:47;102448.66;;;26.11;29.16
3294;BME280;1659;51.470;6.770;2023-05-03T13:10:14;102443.84;;;26.16;29.11
3294;BME280;1659;51.470;6.770;2023-05-03T13:12:43;102442.44;;;26.09;29.17
3294;BME280;1659;51.470;6.770;2023-05-03T13:15:10;102440.06;;;26.18;28.95
3294;BME280;1659;51.470;6.770;2023-05-03T13:17:37;102429.47;;;25.82;29.03
3294;BME280;1659;51.470;6.770;2023-05-03T13:20:05;102423.44;;;25.77;28.90